createdAt,value
2022-10-19T00:01:09.181Z,60.64
2022-10-19T00:03:36.430Z,60.70
2022-10-19T00:06:10.288Z,60.85
2022-10-19T00:08:36.672Z,60.83
2022-10-19T00:11:03.053Z,60.98
2022-10-19T00:13:30.773Z,60.91
2022-10-19T00:15:57.119Z,61.20
2022-10-19T00:18:23.431Z,60.60
2022-10-19T00:20:49.915Z,60.45
2022-10-19T00:23:16.246Z,61.37
2022-10-19T00:25:42.572Z,60.73
2022-10-19T00:28:08.930Z,60.32
2022-10-19T00:30:37.675Z,61.27
2022-10-19T00:33:04.123Z,60.52
2022-10-19T00:35:30.500Z,60.30
2022-10-19T00:37:56.926Z,60.56
2022-10-19T00:40:23.363Z,60.54
2022-10-19T00:42:54.139Z,60.36
2022-10-19T00:45:20.621Z,60.69
2022-10-19T00:47:48.308Z,60.70
2022-10-19T00:50:15.373Z,60.74
2022-10-19T00:52:42.161Z,60.99
2022-10-19T00:55:09.025Z,60.80
2022-10-19T00:57:35.662Z,61.02
2022-10-19T01:00:04.297Z,60.96
2022-10-19T01:02:31.047Z,61.23
2022-10-19T01:04:59.137Z,61.06
2022-10-19T01:07:25.800Z,61.68
2022-10-19T01:09:52.781Z,61.43
2022-10-19T01:12:27.313Z,62.05
2022-10-19T01:14:59.028Z,61.98
2022-10-19T01:17:33.068Z,60.84
2022-10-19T01:20:17.491Z,61.25
2022-10-19T01:22:51.966Z,60.88
2022-10-19T01:25:22.036Z,60.17
2022-10-19T01:28:02.996Z,60.22
2022-10-19T01:30:37.671Z,60.34
2022-10-19T01:33:09.795Z,60.44
2022-10-19T01:38:24.844Z,60.69
2022-10-19T01:45:48.546Z,60.85
2022-10-19T01:53:39.260Z,61.09
2022-10-19T01:56:06.824Z,61.03
2022-10-19T02:01:34.667Z,61.91
2022-10-19T02:04:02.885Z,61.85
2022-10-19T02:11:57.043Z,60.90
2022-10-19T02:14:25.503Z,60.30
2022-10-19T02:16:57.363Z,60.14
2022-10-19T02:21:56.373Z,60.44
2022-10-19T02:24:22.883Z,60.30
2022-10-19T02:26:49.644Z,60.57
2022-10-19T02:29:30.844Z,60.55
2022-10-19T02:32:12.051Z,60.52
2022-10-19T02:37:05.729Z,60.95
2022-10-19T02:39:32.414Z,60.83
2022-10-19T02:42:01.846Z,60.77
2022-10-19T02:44:30.798Z,61.18
2022-10-19T02:47:00.824Z,61.39
2022-10-19T02:49:27.420Z,61.10
2022-10-19T02:56:48.143Z,61.21
2022-10-19T02:59:14.516Z,59.98
2022-10-19T03:01:40.901Z,60.02
2022-10-19T03:04:07.300Z,60.07
2022-10-19T03:06:33.775Z,60.05
2022-10-19T03:09:00.161Z,60.24
2022-10-19T03:11:26.537Z,60.44
2022-10-19T03:13:54.282Z,60.53
2022-10-19T03:16:20.799Z,60.61
2022-10-19T03:18:47.577Z,60.62
2022-10-19T03:21:14.208Z,60.67
2022-10-19T03:23:41.515Z,60.81
2022-10-19T03:26:11.431Z,60.88
2022-10-19T03:28:38.991Z,60.77
2022-10-19T03:31:06.964Z,61.29
2022-10-19T03:33:33.328Z,61.61
2022-10-19T03:36:14.529Z,61.54
2022-10-19T03:38:40.895Z,61.56
2022-10-19T03:41:07.478Z,61.49
2022-10-19T03:43:34.122Z,60.16
2022-10-19T03:46:00.608Z,59.83
2022-10-19T03:48:28.315Z,60.07
2022-10-19T03:50:58.076Z,60.20
2022-10-19T03:53:24.427Z,60.32
2022-10-19T03:55:50.787Z,60.46
2022-10-19T03:58:17.127Z,60.44
2022-10-19T04:00:43.453Z,60.35
2022-10-19T04:03:09.847Z,60.43
2022-10-19T04:05:37.538Z,60.24
2022-10-19T04:08:04.026Z,60.36
2022-10-19T04:10:30.887Z,60.47
2022-10-19T04:12:57.318Z,60.37
2022-10-19T04:15:23.656Z,59.27
2022-10-19T04:17:50.097Z,58.03
2022-10-19T04:20:16.595Z,58.01
2022-10-19T04:22:44.271Z,58.23
2022-10-19T04:25:10.602Z,58.10
2022-10-19T04:27:37.136Z,57.99
2022-10-19T04:30:04.122Z,58.77
2022-10-19T04:32:30.455Z,59.34
2022-10-19T04:34:56.876Z,59.58
2022-10-19T04:37:23.188Z,59.44
2022-10-19T04:39:50.827Z,59.61
2022-10-19T04:42:17.198Z,59.67
2022-10-19T04:44:43.540Z,59.72
2022-10-19T04:47:09.922Z,59.72
2022-10-19T04:49:36.356Z,59.71
2022-10-19T04:52:02.787Z,59.89
2022-10-19T04:54:29.155Z,59.99
2022-10-19T04:56:56.812Z,60.04
2022-10-19T04:59:23.206Z,59.99
2022-10-19T05:01:49.547Z,60.02
2022-10-19T05:04:15.946Z,59.95
2022-10-19T05:06:42.453Z,60.14
2022-10-19T05:09:08.744Z,59.57
2022-10-19T05:11:35.102Z,58.04
2022-10-19T05:14:02.730Z,58.12
2022-10-19T05:16:29.136Z,58.21
2022-10-19T05:18:55.857Z,57.56
2022-10-19T05:21:22.456Z,57.65
2022-10-19T05:23:51.353Z,59.01
2022-10-19T05:26:18.422Z,58.69
2022-10-19T05:28:47.436Z,58.81
2022-10-19T05:31:15.889Z,58.79
2022-10-19T05:33:42.599Z,58.62
2022-10-19T05:36:11.018Z,58.68
2022-10-19T05:38:37.539Z,58.89
2022-10-19T05:41:03.945Z,59.02
2022-10-19T05:43:30.310Z,59.21
2022-10-19T05:45:56.700Z,59.08
2022-10-19T05:48:24.492Z,59.39
2022-10-19T05:50:52.556Z,59.47
2022-10-19T05:53:19.004Z,59.43
2022-10-19T05:55:45.443Z,59.38
2022-10-19T05:58:11.864Z,59.62
2022-10-19T06:00:38.224Z,59.36
2022-10-19T06:03:04.634Z,57.36
2022-10-19T06:05:32.355Z,57.58
2022-10-19T06:07:58.697Z,57.74
2022-10-19T06:10:25.289Z,57.61
2022-10-19T06:12:51.699Z,57.41
2022-10-19T06:15:18.053Z,58.13
2022-10-19T06:17:44.480Z,58.15
2022-10-19T06:20:11.505Z,58.01
2022-10-19T06:22:39.127Z,58.28
2022-10-19T06:25:05.892Z,58.12
2022-10-19T06:27:32.618Z,58.27
2022-10-19T06:29:59.255Z,58.53
2022-10-19T06:32:25.628Z,58.45
2022-10-19T06:34:56.367Z,58.69
2022-10-19T06:37:23.269Z,58.76
2022-10-19T06:39:50.991Z,58.75
2022-10-19T06:42:18.222Z,58.76
2022-10-19T06:44:44.824Z,58.66
2022-10-19T06:47:11.260Z,58.95
2022-10-19T06:49:37.654Z,58.42
2022-10-19T06:52:04.159Z,57.16
2022-10-19T06:54:30.557Z,56.79
2022-10-19T06:56:58.337Z,56.94
2022-10-19T06:59:24.755Z,57.02
2022-10-19T07:01:51.175Z,56.86
2022-10-19T07:04:17.552Z,56.88
2022-10-19T07:06:43.975Z,57.67
2022-10-19T07:09:10.403Z,58.02
2022-10-19T07:11:36.821Z,58.37
2022-10-19T07:14:04.625Z,58.31
2022-10-19T07:16:30.951Z,58.52
2022-10-19T07:18:57.273Z,58.26
2022-10-19T07:21:23.718Z,58.68
2022-10-19T07:23:50.058Z,58.56
2022-10-19T07:26:17.667Z,58.84
2022-10-19T07:28:45.288Z,60.53
2022-10-19T07:31:14.093Z,61.94
2022-10-19T07:33:40.855Z,61.90
2022-10-19T07:36:08.724Z,61.32
2022-10-19T07:38:35.461Z,61.11
2022-10-19T07:41:03.445Z,61.11
2022-10-19T07:43:29.875Z,59.60
2022-10-19T07:45:58.360Z,60.23
2022-10-19T07:48:26.046Z,59.09
2022-10-19T07:50:52.418Z,58.16
2022-10-19T07:53:18.810Z,59.54
2022-10-19T07:55:45.184Z,59.34
2022-10-19T07:58:11.572Z,58.83
2022-10-19T08:03:43.669Z,61.15
2022-10-19T08:06:00.665Z,62.03
2022-10-19T08:08:27.455Z,62.06
2022-10-19T08:10:53.940Z,60.92
2022-10-19T08:13:20.294Z,62.26
2022-10-19T08:15:46.702Z,61.94
2022-10-19T08:18:13.187Z,62.39
2022-10-19T08:20:40.354Z,62.29
2022-10-19T08:23:08.015Z,63.45
2022-10-19T08:25:34.574Z,64.14
2022-10-19T08:28:00.919Z,63.85
2022-10-19T08:30:27.292Z,64.36
2022-10-19T08:32:53.751Z,63.92
2022-10-19T08:35:20.233Z,64.28
2022-10-19T08:37:46.852Z,64.28
2022-10-19T08:40:18.627Z,63.45
2022-10-19T08:42:50.492Z,62.99
2022-10-19T08:45:25.163Z,63.04
2022-10-19T08:48:00.438Z,63.80
2022-10-19T08:50:29.288Z,64.00
2022-10-19T08:53:00.714Z,64.19
2022-10-19T08:55:33.829Z,63.20
2022-10-19T08:58:03.446Z,63.95
2022-10-19T09:00:35.294Z,63.71
2022-10-19T09:03:09.757Z,63.94
2022-10-19T09:05:40.685Z,64.11
2022-10-19T09:08:08.812Z,64.10
2022-10-19T09:10:38.932Z,64.43
2022-10-19T09:13:07.568Z,64.65
2022-10-19T09:15:38.361Z,64.65
2022-10-19T09:18:05.863Z,64.94
2022-10-19T09:20:36.851Z,64.95
2022-10-19T09:23:06.816Z,64.89
2022-10-19T09:25:38.210Z,64.87
2022-10-19T09:28:12.635Z,64.55
2022-10-19T09:30:40.365Z,64.24
2022-10-19T09:33:15.336Z,65.25
2022-10-19T09:35:44.201Z,65.30
2022-10-19T09:38:14.003Z,65.32
2022-10-19T09:40:41.820Z,65.63
2022-10-19T09:43:08.348Z,64.67
2022-10-19T09:45:38.604Z,65.49
2022-10-19T09:48:13.946Z,65.24
2022-10-19T09:50:43.006Z,65.68
2022-10-19T09:53:15.367Z,64.64
2022-10-19T09:55:43.932Z,65.11
2022-10-19T09:58:16.271Z,65.63
2022-10-19T10:00:43.679Z,64.50
2022-10-19T10:03:22.623Z,65.45
2022-10-19T10:05:49.375Z,65.55
2022-10-19T10:08:17.738Z,64.59
2022-10-19T10:10:47.127Z,63.90
2022-10-19T10:13:16.637Z,63.71
2022-10-19T10:15:44.090Z,63.49
2022-10-19T10:18:12.865Z,63.40
2022-10-19T10:20:55.289Z,63.17
2022-10-19T10:23:24.214Z,63.13
2022-10-19T10:25:54.785Z,63.02
2022-10-19T10:28:22.050Z,63.40
2022-10-19T10:30:49.335Z,63.24
2022-10-19T10:33:27.332Z,63.56
2022-10-19T10:36:05.206Z,63.40
2022-10-19T10:38:32.978Z,64.64
2022-10-19T10:41:02.773Z,64.54
2022-10-19T10:43:30.682Z,63.94
2022-10-19T10:46:00.402Z,64.68
2022-10-19T10:48:28.415Z,66.07
2022-10-19T10:50:55.236Z,65.46
2022-10-19T10:53:32.757Z,66.53
2022-10-19T10:55:59.155Z,66.37
2022-10-19T10:58:31.271Z,67.13
2022-10-19T11:01:01.913Z,66.69
2022-10-19T11:03:30.781Z,66.75
2022-10-19T11:05:57.912Z,66.77
2022-10-19T11:08:26.502Z,66.01
2022-10-19T11:10:56.503Z,66.83
2022-10-19T11:13:26.324Z,67.32
2022-10-19T11:15:55.468Z,67.55
2022-10-19T11:18:24.845Z,66.46
2022-10-19T11:20:55.334Z,66.46
2022-10-19T11:23:28.532Z,66.77
2022-10-19T11:26:03.031Z,67.13
2022-10-19T11:28:37.524Z,67.10
2022-10-19T11:31:09.393Z,66.95
2022-10-19T11:36:19.326Z,67.13
2022-10-19T11:38:51.217Z,67.42
2022-10-19T11:41:25.138Z,67.48
2022-10-19T11:44:01.491Z,67.18
2022-10-19T11:46:34.791Z,66.64
2022-10-19T11:49:07.271Z,65.46
2022-10-19T11:51:37.846Z,63.09
2022-10-19T11:54:17.814Z,63.58
2022-10-19T11:57:02.559Z,63.33
2022-10-19T11:59:37.120Z,62.88
2022-10-19T12:02:19.023Z,62.35
2022-10-19T12:04:50.659Z,62.26
2022-10-19T12:07:26.062Z,61.86
2022-10-19T12:09:58.128Z,61.57
2022-10-19T12:12:27.006Z,61.45
2022-10-19T12:14:56.915Z,61.42
2022-10-19T12:17:27.207Z,61.72
2022-10-19T12:19:55.136Z,61.83
2022-10-19T12:22:23.954Z,60.34
2022-10-19T12:24:51.362Z,62.94
2022-10-19T12:27:19.822Z,63.09
2022-10-19T12:29:47.774Z,63.01
2022-10-19T12:32:15.672Z,64.76
2022-10-19T12:34:46.974Z,65.35
2022-10-19T12:37:18.157Z,65.52
2022-10-19T12:39:50.866Z,65.74
2022-10-19T12:42:20.084Z,65.80
2022-10-19T12:44:58.752Z,65.93
2022-10-19T12:47:25.762Z,65.71
2022-10-19T12:49:53.685Z,65.73
2022-10-19T12:52:35.163Z,65.71
2022-10-19T12:55:10.612Z,65.80
2022-10-19T12:57:38.948Z,65.91
2022-10-19T13:00:07.009Z,65.21
2022-10-19T13:02:35.285Z,64.83
2022-10-19T13:05:04.294Z,65.28
2022-10-19T13:07:33.509Z,65.27
2022-10-19T13:10:01.474Z,64.74
2022-10-19T13:12:29.932Z,65.05
2022-10-19T13:14:57.555Z,63.69
2022-10-19T13:17:38.767Z,65.15
2022-10-19T13:20:16.069Z,65.61
2022-10-19T13:22:44.681Z,65.61
2022-10-19T13:25:21.262Z,65.42
2022-10-19T13:27:48.382Z,65.35
2022-10-19T13:30:26.179Z,65.72
2022-10-19T13:32:52.575Z,65.72
2022-10-19T13:35:30.156Z,65.45
2022-10-19T13:38:11.385Z,65.20
2022-10-19T13:40:41.549Z,65.53
2022-10-19T13:43:18.187Z,65.32
2022-10-19T13:45:53.359Z,65.44
2022-10-19T13:48:24.220Z,65.65
2022-10-19T13:50:55.727Z,65.75
2022-10-19T13:53:30.364Z,65.72
2022-10-19T13:56:16.912Z,65.35
2022-10-19T13:58:56.127Z,64.86
2022-10-19T14:01:28.362Z,64.86
2022-10-19T14:04:03.517Z,65.21
2022-10-19T14:06:33.357Z,65.07
2022-10-19T14:09:11.505Z,64.84
2022-10-19T14:11:40.671Z,65.19
2022-10-19T14:14:12.360Z,64.82
2022-10-19T14:16:45.941Z,63.83
2022-10-19T14:19:15.237Z,61.84
2022-10-19T14:21:41.646Z,61.79
2022-10-19T14:24:21.457Z,60.98
2022-10-19T14:26:50.482Z,61.71
2022-10-19T14:29:17.779Z,62.41
2022-10-19T14:31:44.143Z,61.70
2022-10-19T14:34:10.694Z,61.57
2022-10-19T14:36:38.060Z,61.55
2022-10-19T14:39:07.304Z,61.42
2022-10-19T14:44:15.947Z,61.47
2022-10-19T14:46:47.201Z,61.61
2022-10-19T14:49:13.799Z,61.74
2022-10-19T14:51:50.005Z,62.07
2022-10-19T14:54:20.310Z,61.99
2022-10-19T14:56:48.910Z,62.09
2022-10-19T14:59:26.455Z,62.57
2022-10-19T15:01:55.273Z,60.97
2022-10-19T15:04:23.827Z,60.38
2022-10-19T15:06:50.311Z,60.20
2022-10-19T15:09:30.429Z,60.10
2022-10-19T15:12:08.864Z,60.08
2022-10-19T15:14:37.315Z,60.13
2022-10-19T15:17:20.959Z,59.97
2022-10-19T15:19:47.505Z,59.88
2022-10-19T15:22:16.609Z,59.45
2022-10-19T15:24:54.725Z,59.54
2022-10-19T15:27:22.168Z,59.13
2022-10-19T15:29:54.199Z,58.86
2022-10-19T15:32:23.449Z,60.03
2022-10-19T15:34:49.927Z,59.61
2022-10-19T15:37:18.183Z,59.87
2022-10-19T15:39:45.735Z,59.58
2022-10-19T15:42:26.154Z,59.85
2022-10-19T15:44:52.715Z,59.80
2022-10-19T15:47:20.756Z,60.25
2022-10-19T15:49:54.197Z,60.13
2022-10-19T15:52:21.438Z,60.65
2022-10-19T15:54:48.263Z,60.72
2022-10-19T15:57:23.057Z,60.66
2022-10-19T15:59:49.390Z,60.82
2022-10-19T16:02:15.763Z,61.31
2022-10-19T16:04:42.198Z,61.13
2022-10-19T16:07:14.666Z,59.75
2022-10-19T16:09:41.029Z,59.58
2022-10-19T16:12:09.079Z,59.73
2022-10-19T16:14:36.673Z,59.41
2022-10-19T16:17:03.844Z,59.61
2022-10-19T16:19:30.213Z,59.24
2022-10-19T16:21:56.585Z,58.85
2022-10-19T16:24:24.350Z,58.86
2022-10-19T16:26:50.796Z,58.53
2022-10-19T16:29:17.173Z,58.41
2022-10-19T16:31:43.486Z,58.37
2022-10-19T16:34:09.935Z,58.15
2022-10-19T16:36:36.412Z,58.55
2022-10-19T16:39:02.921Z,59.22
2022-10-19T16:41:31.053Z,59.80
2022-10-19T16:43:58.067Z,59.88
2022-10-19T16:46:25.308Z,59.82
2022-10-19T16:48:52.629Z,59.50
2022-10-19T16:51:21.623Z,60.03
2022-10-19T16:53:50.363Z,60.14
2022-10-19T16:56:16.720Z,60.30
2022-10-19T16:58:44.485Z,60.45
2022-10-19T17:01:12.010Z,60.71
2022-10-19T17:03:38.390Z,60.59
2022-10-19T17:06:05.363Z,60.94
2022-10-19T17:08:37.030Z,60.64
2022-10-19T17:11:12.296Z,61.00
2022-10-19T17:13:38.756Z,59.41
2022-10-19T17:16:07.364Z,58.99
2022-10-19T17:18:33.778Z,58.60
2022-10-19T17:21:02.680Z,58.89
2022-10-19T17:23:29.515Z,58.64
2022-10-19T17:25:55.922Z,58.37
2022-10-19T17:28:24.193Z,58.45
2022-10-19T17:30:53.362Z,58.10
2022-10-19T17:33:21.346Z,58.13
2022-10-19T17:35:47.898Z,60.24
2022-10-19T17:38:14.326Z,60.02
2022-10-19T17:40:40.650Z,59.71
2022-10-19T17:43:06.986Z,60.00
2022-10-19T17:45:33.357Z,60.24
2022-10-19T17:47:59.701Z,60.03
2022-10-19T17:50:27.403Z,59.80
2022-10-19T17:52:53.936Z,60.12
2022-10-19T17:57:51.628Z,60.49
2022-10-19T18:00:17.948Z,60.45
2022-10-19T18:02:44.898Z,60.78
2022-10-19T18:05:11.313Z,60.37
2022-10-19T18:07:38.982Z,60.40
2022-10-19T18:10:05.633Z,59.05
2022-10-19T18:12:31.964Z,58.63
2022-10-19T18:14:58.288Z,58.61
2022-10-19T18:17:27.677Z,58.31
2022-10-19T18:19:54.316Z,58.18
2022-10-19T18:22:20.649Z,58.34
2022-10-19T18:24:48.530Z,57.95
2022-10-19T18:27:14.941Z,57.88
2022-10-19T18:29:41.382Z,59.82
2022-10-19T18:32:07.723Z,59.47
2022-10-19T18:34:34.143Z,59.05
2022-10-19T18:37:00.577Z,59.70
2022-10-19T18:39:26.959Z,59.60
2022-10-19T18:41:55.054Z,59.59
2022-10-19T18:44:26.273Z,59.64
2022-10-19T18:46:54.603Z,60.03
2022-10-19T18:49:21.093Z,60.07
2022-10-19T18:51:52.353Z,60.27
2022-10-19T18:54:21.627Z,60.40
2022-10-19T18:56:48.214Z,60.68
2022-10-19T18:59:15.937Z,61.07
2022-10-19T19:01:42.493Z,60.53
2022-10-19T19:04:09.461Z,59.60
2022-10-19T19:06:36.970Z,58.65
2022-10-19T19:09:04.826Z,58.30
2022-10-19T19:11:35.850Z,58.49
2022-10-19T19:14:04.427Z,58.27
2022-10-19T19:16:34.064Z,58.08
2022-10-19T19:19:00.553Z,57.70
2022-10-19T19:21:28.515Z,57.96
2022-10-19T19:23:55.676Z,58.93
2022-10-19T19:26:23.190Z,59.93
2022-10-19T19:28:51.702Z,59.50
2022-10-19T19:31:18.569Z,59.57
2022-10-19T19:33:47.564Z,59.59
2022-10-19T19:36:14.759Z,59.75
2022-10-19T19:38:41.395Z,59.60
2022-10-19T19:41:08.837Z,59.78
2022-10-19T19:43:35.899Z,59.48
2022-10-19T19:46:06.422Z,60.02
2022-10-19T19:48:35.354Z,60.17
2022-10-19T19:51:03.064Z,60.36
2022-10-19T19:53:29.515Z,60.44
2022-10-19T19:55:55.883Z,60.31
2022-10-19T19:58:22.458Z,60.56
2022-10-19T20:00:49.273Z,58.91
2022-10-19T20:03:15.927Z,58.43
2022-10-19T20:05:42.707Z,58.31
2022-10-19T20:08:10.451Z,57.88
2022-10-19T20:10:37.903Z,58.28
2022-10-19T20:15:30.706Z,57.92
2022-10-19T20:17:57.112Z,59.93
2022-10-19T20:20:23.446Z,59.95
2022-10-19T20:22:49.813Z,59.97
2022-10-19T20:25:17.834Z,60.45
2022-10-19T20:27:44.229Z,60.20
2022-10-19T20:30:10.973Z,60.23
2022-10-19T20:32:37.923Z,60.26
2022-10-19T20:35:04.804Z,60.50
2022-10-19T20:37:31.344Z,60.62
2022-10-19T20:39:57.735Z,60.76
2022-10-19T20:42:25.480Z,60.59
2022-10-19T20:44:51.788Z,61.05
2022-10-19T20:47:18.200Z,60.77
2022-10-19T20:49:44.567Z,60.61
2022-10-19T20:52:10.934Z,60.71
2022-10-19T20:54:37.291Z,58.95
2022-10-19T20:57:03.692Z,58.62
2022-10-19T20:59:31.335Z,58.43
2022-10-19T21:01:57.826Z,58.20
2022-10-19T21:04:24.465Z,59.06
2022-10-19T21:06:51.549Z,57.97
2022-10-19T21:09:19.002Z,57.85
2022-10-19T21:11:46.051Z,57.84
2022-10-19T21:14:13.962Z,59.75
2022-10-19T21:16:41.643Z,59.43
2022-10-19T21:19:10.116Z,59.32
2022-10-19T21:21:37.315Z,59.46
2022-10-19T21:24:04.626Z,59.54
2022-10-19T21:26:32.060Z,59.58
2022-10-19T21:28:58.616Z,59.55
2022-10-19T21:31:25.828Z,59.65
2022-10-19T21:33:53.889Z,59.58
2022-10-19T21:36:21.391Z,59.80
2022-10-19T21:38:48.025Z,60.02
2022-10-19T21:41:20.907Z,60.07
2022-10-19T21:43:52.483Z,60.14
2022-10-19T21:46:20.336Z,60.24
2022-10-19T21:48:47.059Z,59.87
2022-10-19T21:51:20.319Z,59.12
2022-10-19T21:53:46.679Z,58.61
2022-10-19T21:56:13.080Z,58.01
2022-10-19T21:58:43.644Z,58.04
2022-10-19T22:01:09.994Z,58.13
2022-10-19T22:03:36.325Z,58.05
2022-10-19T22:06:02.703Z,57.60
2022-10-19T22:08:30.551Z,59.68
2022-10-19T22:10:57.018Z,59.63
2022-10-19T22:13:23.367Z,58.96
2022-10-19T22:15:49.699Z,58.82
2022-10-19T22:18:16.043Z,59.01
2022-10-19T22:20:42.375Z,58.98
2022-10-19T22:23:08.705Z,59.11
2022-10-19T22:25:36.356Z,59.09
2022-10-19T22:28:02.717Z,59.13
2022-10-19T22:30:29.359Z,59.11
2022-10-19T22:32:55.714Z,59.47
2022-10-19T22:35:22.081Z,59.58
2022-10-19T22:37:48.419Z,59.61
2022-10-19T22:40:15.037Z,59.79
2022-10-19T22:42:42.675Z,60.12
2022-10-19T22:45:09.160Z,59.49
2022-10-19T22:47:35.533Z,58.94
2022-10-19T22:50:01.858Z,58.06
2022-10-19T22:52:28.199Z,58.15
2022-10-19T22:54:54.571Z,58.92
2022-10-19T22:57:20.908Z,57.71
2022-10-19T22:59:48.581Z,57.80
2022-10-19T23:02:14.893Z,59.32
2022-10-19T23:04:41.268Z,58.99
2022-10-19T23:07:07.716Z,58.91
2022-10-19T23:09:34.052Z,58.90
2022-10-19T23:12:00.575Z,59.06
2022-10-19T23:14:26.948Z,59.01
2022-10-19T23:16:54.618Z,59.28
2022-10-19T23:19:21.089Z,59.27
2022-10-19T23:21:47.439Z,59.41
2022-10-19T23:24:13.775Z,59.37
2022-10-19T23:26:40.083Z,59.39
2022-10-19T23:29:06.429Z,59.52
2022-10-19T23:31:32.843Z,59.61
2022-10-19T23:34:00.477Z,59.69
2022-10-19T23:36:27.427Z,59.58
2022-10-19T23:38:54.698Z,58.63
2022-10-19T23:41:21.564Z,58.16
2022-10-19T23:43:48.485Z,57.67
2022-10-19T23:46:14.886Z,58.13
2022-10-19T23:48:41.471Z,58.02
2022-10-19T23:51:10.590Z,57.64
2022-10-19T23:53:40.781Z,58.97
2022-10-19T23:56:08.809Z,59.01
2022-10-19T23:58:35.128Z,58.68
